Notice: Undefined index: language in /home/u908952976/domains/airgaviota-va.com/public_html/vam/index.php on line 25
AirGaviota-VA

... VIRTUAL FLIGHT...OUR PASSION



 FLIGHT DETAILS
Pilot: GVT462 Peter Voksan Aircraft: REDEYES - ANTONOV AN-2 (32V_64B) AN-2-GAVIOTAAIRVAAEROTAXI Distance: 14NM
Departure MUPB Arrival MUHA Duration 00:13
Validation Validated Type Charter Tail Number GV-AET
ZFW 4085 Block Fuel/Initial FOB 29/0 Flight Fuel 17
Passengers 20 Cargo 0 Alternate MULB
Departure Time 0630 Cruise Speed 120 Flight Level 0500
Flight Type VFR Aircraft Type AN2 Weight Unit Kg
Date 20-10-2020 Pilot Comments Network IVAO
Crashed No Validator Comments Flight Rating 70

 ROUTE
ROUTE HABANA
REMARKS
 FLIGHT FAILURES
Crashed OK Beacon off & Engine Running Fail KIAS Above 250 below 10000 FT OK
Lights OFF below 10000 FT OK Lights ON above 10000 FT OK Stall OK
Overspeed OK Flight paused OK Refueling OK
Slew detected OK Taxi & Taxi lights off OK Take off & lights off OK
Landing & lights off OK Landed in not planned airport OK Taxi Speed OK
Wrong altimeter in Take off OK Wrong altimeter in Landing OK
 LANDING ANALYSIS
Landing wind 79º/4 kt Landing heading 9
Landing VS: -73.05 ft/min Landing IAS: 55.28 kt
Landing Force G 1.1 G Landing Bank -2.8
Landing Pitch 0.7 Landing Flaps 0
Navigation Lights ON Landing Lights ON
Beacon Lights OFF Strobe Lights OFF
 FLIGHT MAP
 ALTITUDE CHART
 FLIGHT FINANCIAL REPORT
 MAIN EVENTS
DATE EVENTIASALTITUDE
2020-10-20 08:26:00 SIM ACARS version 1.4.10112
2020-10-20 08:26:00 BOARDING0112
2020-10-20 08:27:22 STARTING ENGINE 1 0112
2020-10-20 08:27:22 BEACON LIGHT OFF & ENGINE ON0112
2020-10-20 08:28:17 FLAPS EXTENSION 1 % 0112
2020-10-20 08:28:17 FLAPS EXTENSION 3 % 0112
2020-10-20 08:28:17 FLAPS EXTENSION 5 % 0112
2020-10-20 08:28:17 FLAPS EXTENSION 7 % 0112
2020-10-20 08:28:17 FLAPS EXTENSION 9 % 0112
2020-10-20 08:28:17 FLAPS EXTENSION 11 % 0112
2020-10-20 08:28:17 FLAPS EXTENSION 13 % 0112
2020-10-20 08:28:18 FLAPS EXTENSION 14 % 0112
2020-10-20 08:28:18 FLAPS EXTENSION 16 % 0112
2020-10-20 08:28:18 FLAPS EXTENSION 18 % 0112
2020-10-20 08:28:18 FLAPS EXTENSION 21 % 0112
2020-10-20 08:28:18 FLAPS EXTENSION 23 % 0112
2020-10-20 08:28:18 FLAPS EXTENSION 25 % 0112
2020-10-20 08:28:19 FLAPS EXTENSION 27 % 0112
2020-10-20 08:28:19 FLAPS EXTENSION 29 % 0112
2020-10-20 08:28:19 FLAPS EXTENSION 31 % 0112
2020-10-20 08:28:19 FLAPS EXTENSION 33 % 0112
2020-10-20 08:28:19 FLAPS EXTENSION 35 % 0112
2020-10-20 08:28:19 FLAPS EXTENSION 37 % 0112
2020-10-20 08:28:20 FLAPS EXTENSION 38 % 0112
2020-10-20 08:30:45 TAXI TO THE RWY 10112
2020-10-20 08:33:19 ROLLING FOR TAKE OFF43112
2020-10-20 08:33:20 TAKE OFF45113
2020-10-20 08:33:48 FLAPS EXTENSION 36 % 48228
2020-10-20 08:33:48 FLAPS EXTENSION 35 % 48229
2020-10-20 08:33:48 FLAPS EXTENSION 32 % 48230
2020-10-20 08:33:49 FLAPS EXTENSION 30 % 48231
2020-10-20 08:33:49 FLAPS EXTENSION 28 % 48232
2020-10-20 08:33:49 FLAPS EXTENSION 26 % 48233
2020-10-20 08:33:49 FLAPS EXTENSION 24 % 48234
2020-10-20 08:33:49 FLAPS EXTENSION 22 % 48235
2020-10-20 08:33:49 FLAPS EXTENSION 22 % 48236
2020-10-20 08:33:54 FLAPS EXTENSION 20 % 49258
2020-10-20 08:33:55 FLAPS EXTENSION 18 % 49259
2020-10-20 08:33:55 FLAPS EXTENSION 16 % 49259
2020-10-20 08:33:55 FLAPS EXTENSION 14 % 49260
2020-10-20 08:33:55 FLAPS EXTENSION 12 % 49260
2020-10-20 08:34:14 FLAPS EXTENSION 10 % 54320
2020-10-20 08:34:14 FLAPS EXTENSION 8 % 54320
2020-10-20 08:34:14 FLAPS EXTENSION 7 % 54320
2020-10-20 08:34:14 FLAPS EXTENSION 4 % 54321
2020-10-20 08:34:14 FLAPS EXTENSION 2 % 54321
2020-10-20 08:34:15 FLAPS EXTENSION 1 % 54322
2020-10-20 08:34:15 FLAPS EXTENSION 0 % 54322
2020-10-20 08:34:20 CRUISE54335
2020-10-20 08:35:40 CLIMBING61663
2020-10-20 08:36:30 CRUISE63864
2020-10-20 08:37:10 CLIMBING65991
2020-10-20 08:37:40 CRUISE651075
2020-10-20 08:39:20 CLIMBING701386
2020-10-20 08:40:20 CRUISE731589
2020-10-20 08:41:20 CLIMBING771743
2020-10-20 08:42:10 DESCEND831414
2020-10-20 08:42:33 FLAPS EXTENSION 2 % 691108
2020-10-20 08:42:33 FLAPS EXTENSION 6 % 691105
2020-10-20 08:42:34 FLAPS EXTENSION 18 % 681095
2020-10-20 08:42:35 FLAPS EXTENSION 28 % 681088
2020-10-20 08:42:36 FLAPS EXTENSION 40 % 681079
2020-10-20 08:42:48 FLAPS EXTENSION 42 % 59991
2020-10-20 08:42:48 FLAPS EXTENSION 44 % 59990
2020-10-20 08:42:48 FLAPS EXTENSION 47 % 60988
2020-10-20 08:42:48 FLAPS EXTENSION 49 % 60987
2020-10-20 08:42:49 FLAPS EXTENSION 52 % 60985
2020-10-20 08:42:49 FLAPS EXTENSION 54 % 60983
2020-10-20 08:42:49 FLAPS EXTENSION 55 % 59983
2020-10-20 08:42:49 FLAPS EXTENSION 58 % 59981
2020-10-20 08:42:49 FLAPS EXTENSION 60 % 58980
2020-10-20 08:42:49 FLAPS EXTENSION 62 % 58979
2020-10-20 08:42:50 FLAPS EXTENSION 64 % 58978
2020-10-20 08:42:50 FLAPS EXTENSION 66 % 57977
2020-10-20 08:42:50 FLAPS EXTENSION 68 % 57976
2020-10-20 08:42:50 FLAPS EXTENSION 70 % 57974
2020-10-20 08:42:50 FLAPS EXTENSION 71 % 57973
2020-10-20 08:43:11 FLAPS EXTENSION 73 % 54859
2020-10-20 08:43:11 FLAPS EXTENSION 77 % 53858
2020-10-20 08:43:13 FLAPS EXTENSION 94 % 53855
2020-10-20 08:43:13 FLAPS EXTENSION 100 % 53854
2020-10-20 08:43:30 CRUISE51831
2020-10-20 08:45:20 DESCEND61660
2020-10-20 08:46:40 CRUISE55233
2020-10-20 08:46:59 LANDING55220
2020-10-20 08:47:19 FLAPS EXTENSION 98 % 26219
2020-10-20 08:47:19 FLAPS EXTENSION 96 % 26219
2020-10-20 08:47:19 FLAPS EXTENSION 94 % 26219
2020-10-20 08:47:19 FLAPS EXTENSION 92 % 26219
2020-10-20 08:47:19 FLAPS EXTENSION 90 % 26219
2020-10-20 08:47:20 FLAPS EXTENSION 87 % 25219
2020-10-20 08:47:20 FLAPS EXTENSION 83 % 25219
2020-10-20 08:47:20 FLAPS EXTENSION 80 % 25219
2020-10-20 08:47:20 FLAPS EXTENSION 77 % 24219
2020-10-20 08:47:21 FLAPS EXTENSION 76 % 24219
2020-10-20 08:47:21 FLAPS EXTENSION 74 % 24219
2020-10-20 08:47:21 FLAPS EXTENSION 71 % 23219
2020-10-20 08:47:21 FLAPS EXTENSION 70 % 23219
2020-10-20 08:47:21 FLAPS EXTENSION 67 % 23219
2020-10-20 08:47:21 FLAPS EXTENSION 66 % 23219
2020-10-20 08:47:21 FLAPS EXTENSION 65 % 22219
2020-10-20 08:47:22 FLAPS EXTENSION 61 % 22219
2020-10-20 08:47:22 FLAPS EXTENSION 60 % 22219
2020-10-20 08:47:22 FLAPS EXTENSION 58 % 22219
2020-10-20 08:47:22 FLAPS EXTENSION 56 % 22219
2020-10-20 08:47:22 FLAPS EXTENSION 54 % 22219
2020-10-20 08:47:22 FLAPS EXTENSION 51 % 21219
2020-10-20 08:47:23 FLAPS EXTENSION 50 % 21219
2020-10-20 08:47:23 FLAPS EXTENSION 48 % 21219
2020-10-20 08:47:23 FLAPS EXTENSION 47 % 21219
2020-10-20 08:47:23 FLAPS EXTENSION 45 % 21219
2020-10-20 08:47:23 FLAPS EXTENSION 43 % 21219
2020-10-20 08:47:23 FLAPS EXTENSION 41 % 21219
2020-10-20 08:47:23 FLAPS EXTENSION 39 % 20219
2020-10-20 08:47:24 FLAPS EXTENSION 37 % 20219
2020-10-20 08:47:24 FLAPS EXTENSION 35 % 20219
2020-10-20 08:47:24 TAXI TO THE GATE20219
2020-10-20 08:47:24 FLAPS EXTENSION 32 % 20219
2020-10-20 08:47:24 FLAPS EXTENSION 29 % 19219
2020-10-20 08:47:24 FLAPS EXTENSION 27 % 19219
2020-10-20 08:47:25 FLAPS EXTENSION 25 % 19219
2020-10-20 08:47:25 FLAPS EXTENSION 23 % 19219
2020-10-20 08:47:25 FLAPS EXTENSION 21 % 19219
2020-10-20 08:47:25 FLAPS EXTENSION 19 % 18219
2020-10-20 08:47:25 FLAPS EXTENSION 16 % 18219
2020-10-20 08:47:25 FLAPS EXTENSION 15 % 18219
2020-10-20 08:47:26 FLAPS EXTENSION 13 % 17219
2020-10-20 08:47:26 FLAPS EXTENSION 11 % 17219
2020-10-20 08:47:26 FLAPS EXTENSION 9 % 17219
2020-10-20 08:47:26 FLAPS EXTENSION 8 % 17219
2020-10-20 08:47:26 FLAPS EXTENSION 5 % 17219
2020-10-20 08:47:26 FLAPS EXTENSION 2 % 16219
2020-10-20 08:47:27 FLAPS EXTENSION 1 % 16219
2020-10-20 08:47:27 FLAPS EXTENSION 0 % 16219
2020-10-20 08:52:20 STOPPING ENGINE 1 0219
 ACARS DATA
DATE IASGSALTITUDEFUEL CONSUMED OATFLIGHT STATUS
2020-10-20 08:27:0000111122BOARDING
2020-10-20 08:28:0000111122BOARDING
2020-10-20 08:29:0000111222BOARDING
2020-10-20 08:30:0000111322BOARDING
2020-10-20 08:31:001818112422TAXI TO THE RWY
2020-10-20 08:32:0000111522TAXI TO THE RWY
2020-10-20 08:33:0011111622TAXI TO THE RWY
2020-10-20 08:34:005151273822CLIMBING
2020-10-20 08:35:0070694081022CRUISE
2020-10-20 08:36:0061597451121CLIMBING
2020-10-20 08:37:0066649511320CRUISE
2020-10-20 08:38:00666411321420CRUISE
2020-10-20 08:39:00686913181520CRUISE
2020-10-20 08:40:00676715311719CLIMBING
2020-10-20 08:41:00727117081819CRUISE
2020-10-20 08:42:00848415921919CLIMBING
2020-10-20 08:43:0056569182020DESCEND
2020-10-20 08:44:0054538152121CRUISE
2020-10-20 08:45:0057547862321CRUISE
2020-10-20 08:46:0060583632422DESCEND
2020-10-20 08:47:0055542192522LANDED
2020-10-20 08:48:00652192622TAXI TO THE GATE
2020-10-20 08:49:0013122182722TAXI TO THE GATE
2020-10-20 08:50:0013122192822TAXI TO THE GATE
2020-10-20 08:51:0010122182922TAXI TO THE GATE
2020-10-20 08:52:00002183022TAXI TO THE GATE
2020-10-20 08:53:00002183022TAXI TO THE GATE